sensor_id;sensor_type;location;lat;lon;timestamp;P1;P2;P0
65803;PMS5003;65658;63.740;34.316;2023-04-19T00:02:01;55;69;
65803;PMS5003;65658;63.740;34.316;2023-04-19T00:05:54;54;67;
65803;PMS5003;65658;63.740;34.316;2023-04-19T00:09:56;43;52;
65803;PMS5003;65658;63.740;34.316;2023-04-19T00:13:46;34;40;
65803;PMS5003;65658;63.740;34.316;2023-04-19T00:18:23;21;21;
65803;PMS5003;65658;63.740;34.316;2023-04-19T00:27:11;34;39;
65803;PMS5003;65658;63.740;34.316;2023-04-19T00:36:04;30;31;
65803;PMS5003;65658;63.740;34.316;2023-04-19T00:39:55;29;29;
65803;PMS5003;65658;63.740;34.316;2023-04-19T00:44:07;26;28;
65803;PMS5003;65658;63.740;34.316;2023-04-19T00:52:22;37;40;
65803;PMS5003;65658;63.740;34.316;2023-04-19T00:56:35;50;61;
65803;PMS5003;65658;63.740;34.316;2023-04-19T01:00:36;50;58;
65803;PMS5003;65658;63.740;34.316;2023-04-19T01:04:28;49;58;
65803;PMS5003;65658;63.740;34.316;2023-04-19T01:08:42;46;58;
65803;PMS5003;65658;63.740;34.316;2023-04-19T01:16:25;39;47;
65803;PMS5003;65658;63.740;34.316;2023-04-19T01:24:10;36;37;
65803;PMS5003;65658;63.740;34.316;2023-04-19T01:27:58;35;38;
65803;PMS5003;65658;63.740;34.316;2023-04-19T01:32:11;25;27;
65803;PMS5003;65658;63.740;34.316;2023-04-19T01:36:36;25;26;
65803;PMS5003;65658;63.740;34.316;2023-04-19T01:44:28;22;23;
65803;PMS5003;65658;63.740;34.316;2023-04-19T01:48:29;24;25;
65803;PMS5003;65658;63.740;34.316;2023-04-19T01:52:29;37;40;
65803;PMS5003;65658;63.740;34.316;2023-04-19T01:56:19;30;34;
65803;PMS5003;65658;63.740;34.316;2023-04-19T02:00:12;39;44;
65803;PMS5003;65658;63.740;34.316;2023-04-19T02:04:02;42;51;
65803;PMS5003;65658;63.740;34.316;2023-04-19T02:13:27;36;37;
65803;PMS5003;65658;63.740;34.316;2023-04-19T02:17:36;17;17;
65803;PMS5003;65658;63.740;34.316;2023-04-19T02:21:26;13;13;
65803;PMS5003;65658;63.740;34.316;2023-04-19T02:29:16;23;25;
65803;PMS5003;65658;63.740;34.316;2023-04-19T02:37:19;15;16;
65803;PMS5003;65658;63.740;34.316;2023-04-19T02:51:02;10;15;
65803;PMS5003;65658;63.740;34.316;2023-04-19T02:54:48;10;10;
65803;PMS5003;65658;63.740;34.316;2023-04-19T02:58:34;12;15;
65803;PMS5003;65658;63.740;34.316;2023-04-19T03:02:21;12;14;
65803;PMS5003;65658;63.740;34.316;2023-04-19T03:06:09;13;13;
65803;PMS5003;65658;63.740;34.316;2023-04-19T03:10:06;10;10;
65803;PMS5003;65658;63.740;34.316;2023-04-19T03:13:53;16;19;
65803;PMS5003;65658;63.740;34.316;2023-04-19T03:21:32;23;24;
65803;PMS5003;65658;63.740;34.316;2023-04-19T03:25:43;29;29;
65803;PMS5003;65658;63.740;34.316;2023-04-19T03:41:39;13;15;
65803;PMS5003;65658;63.740;34.316;2023-04-19T03:45:25;18;18;
65803;PMS5003;65658;63.740;34.316;2023-04-19T03:53:52;23;23;
65803;PMS5003;65658;63.740;34.316;2023-04-19T03:57:49;20;21;
65803;PMS5003;65658;63.740;34.316;2023-04-19T04:01:36;12;12;
65803;PMS5003;65658;63.740;34.316;2023-04-19T04:05:22;10;11;
65803;PMS5003;65658;63.740;34.316;2023-04-19T04:09:08;12;13;
65803;PMS5003;65658;63.740;34.316;2023-04-19T04:16:45;10;11;
65803;PMS5003;65658;63.740;34.316;2023-04-19T04:20:31;9;10;
65803;PMS5003;65658;63.740;34.316;2023-04-19T04:24:17;10;10;
65803;PMS5003;65658;63.740;34.316;2023-04-19T04:28:03;10;10;
65803;PMS5003;65658;63.740;34.316;2023-04-19T04:31:50;8;8;
65803;PMS5003;65658;63.740;34.316;2023-04-19T04:35:36;8;8;
65803;PMS5003;65658;63.740;34.316;2023-04-19T04:39:23;9;10;
65803;PMS5003;65658;63.740;34.316;2023-04-19T04:43:09;9;10;
65803;PMS5003;65658;63.740;34.316;2023-04-19T04:46:55;10;10;
65803;PMS5003;65658;63.740;34.316;2023-04-19T04:54:31;9;10;
65803;PMS5003;65658;63.740;34.316;2023-04-19T05:02:09;5;5;
65803;PMS5003;65658;63.740;34.316;2023-04-19T05:05:55;3;4;
65803;PMS5003;65658;63.740;34.316;2023-04-19T05:09:41;7;7;
65803;PMS5003;65658;63.740;34.316;2023-04-19T05:13:38;3;3;
65803;PMS5003;65658;63.740;34.316;2023-04-19T05:17:24;7;7;
65803;PMS5003;65658;63.740;34.316;2023-04-19T05:21:11;5;5;
65803;PMS5003;65658;63.740;34.316;2023-04-19T05:24:57;4;4;
65803;PMS5003;65658;63.740;34.316;2023-04-19T05:28:43;4;4;
65803;PMS5003;65658;63.740;34.316;2023-04-19T05:32:30;2;3;
65803;PMS5003;65658;63.740;34.316;2023-04-19T05:36:27;3;3;
65803;PMS5003;65658;63.740;34.316;2023-04-19T05:40:13;3;3;
65803;PMS5003;65658;63.740;34.316;2023-04-19T05:44:00;3;3;
65803;PMS5003;65658;63.740;34.316;2023-04-19T05:47:45;4;4;
65803;PMS5003;65658;63.740;34.316;2023-04-19T05:51:31;8;8;
65803;PMS5003;65658;63.740;34.316;2023-04-19T05:55:16;2;2;
65803;PMS5003;65658;63.740;34.316;2023-04-19T06:02:53;2;2;
65803;PMS5003;65658;63.740;34.316;2023-04-19T06:06:40;3;3;
65803;PMS5003;65658;63.740;34.316;2023-04-19T06:10:26;3;3;
65803;PMS5003;65658;63.740;34.316;2023-04-19T06:14:13;3;3;
65803;PMS5003;65658;63.740;34.316;2023-04-19T06:17:59;2;2;
65803;PMS5003;65658;63.740;34.316;2023-04-19T06:21:45;3;3;
65803;PMS5003;65658;63.740;34.316;2023-04-19T06:25:32;3;3;
65803;PMS5003;65658;63.740;34.316;2023-04-19T06:29:18;2;2;
65803;PMS5003;65658;63.740;34.316;2023-04-19T06:33:05;2;2;
65803;PMS5003;65658;63.740;34.316;2023-04-19T06:36:51;2;2;
65803;PMS5003;65658;63.740;34.316;2023-04-19T06:40:37;2;2;
65803;PMS5003;65658;63.740;34.316;2023-04-19T06:44:35;2;2;
65803;PMS5003;65658;63.740;34.316;2023-04-19T06:52:12;3;3;
65803;PMS5003;65658;63.740;34.316;2023-04-19T06:55:59;4;4;
65803;PMS5003;65658;63.740;34.316;2023-04-19T06:59:44;3;3;
65803;PMS5003;65658;63.740;34.316;2023-04-19T07:03:31;5;5;
65803;PMS5003;65658;63.740;34.316;2023-04-19T07:07:17;2;2;
65803;PMS5003;65658;63.740;34.316;2023-04-19T07:11:04;4;4;
65803;PMS5003;65658;63.740;34.316;2023-04-19T07:18:40;4;4;
65803;PMS5003;65658;63.740;34.316;2023-04-19T07:22:26;3;3;
65803;PMS5003;65658;63.740;34.316;2023-04-19T07:26:14;5;5;
65803;PMS5003;65658;63.740;34.316;2023-04-19T07:30:01;4;4;
65803;PMS5003;65658;63.740;34.316;2023-04-19T07:33:47;4;4;
65803;PMS5003;65658;63.740;34.316;2023-04-19T07:41:24;3;4;
65803;PMS5003;65658;63.740;34.316;2023-04-19T07:45:10;4;4;
65803;PMS5003;65658;63.740;34.316;2023-04-19T07:48:56;4;4;
65803;PMS5003;65658;63.740;34.316;2023-04-19T07:52:42;4;4;
65803;PMS5003;65658;63.740;34.316;2023-04-19T07:56:29;5;5;
65803;PMS5003;65658;63.740;34.316;2023-04-19T08:00:27;6;6;
65803;PMS5003;65658;63.740;34.316;2023-04-19T08:04:13;7;7;
65803;PMS5003;65658;63.740;34.316;2023-04-19T08:08:10;5;5;
65803;PMS5003;65658;63.740;34.316;2023-04-19T08:11:56;4;4;
65803;PMS5003;65658;63.740;34.316;2023-04-19T08:16:04;3;3;
65803;PMS5003;65658;63.740;34.316;2023-04-19T08:19:51;4;5;
65803;PMS5003;65658;63.740;34.316;2023-04-19T08:23:37;5;5;
65803;PMS5003;65658;63.740;34.316;2023-04-19T08:27:23;4;4;
65803;PMS5003;65658;63.740;34.316;2023-04-19T08:31:20;3;4;
65803;PMS5003;65658;63.740;34.316;2023-04-19T08:35:07;5;5;
65803;PMS5003;65658;63.740;34.316;2023-04-19T08:42:44;6;6;
65803;PMS5003;65658;63.740;34.316;2023-04-19T08:46:53;4;4;
65803;PMS5003;65658;63.740;34.316;2023-04-19T08:50:53;4;4;
65803;PMS5003;65658;63.740;34.316;2023-04-19T08:54:41;4;4;
65803;PMS5003;65658;63.740;34.316;2023-04-19T08:58:38;4;4;
65803;PMS5003;65658;63.740;34.316;2023-04-19T09:02:25;3;4;
65803;PMS5003;65658;63.740;34.316;2023-04-19T09:06:12;4;4;
65803;PMS5003;65658;63.740;34.316;2023-04-19T09:13:49;4;4;
65803;PMS5003;65658;63.740;34.316;2023-04-19T09:21:48;4;4;
65803;PMS5003;65658;63.740;34.316;2023-04-19T09:25:35;4;4;
65803;PMS5003;65658;63.740;34.316;2023-04-19T09:41:06;4;4;
65803;PMS5003;65658;63.740;34.316;2023-04-19T09:48:43;7;7;
65803;PMS5003;65658;63.740;34.316;2023-04-19T09:52:31;15;16;
65803;PMS5003;65658;63.740;34.316;2023-04-19T09:56:18;8;8;
65803;PMS5003;65658;63.740;34.316;2023-04-19T10:00:04;1;1;
65803;PMS5003;65658;63.740;34.316;2023-04-19T10:03:51;12;13;
65803;PMS5003;65658;63.740;34.316;2023-04-19T10:07:48;11;14;
65803;PMS5003;65658;63.740;34.316;2023-04-19T10:15:26;5;6;
65803;PMS5003;65658;63.740;34.316;2023-04-19T10:19:23;5;5;
65803;PMS5003;65658;63.740;34.316;2023-04-19T10:30:54;3;3;
65803;PMS5003;65658;63.740;34.316;2023-04-19T10:42:22;1;1;
65803;PMS5003;65658;63.740;34.316;2023-04-19T10:46:12;1;1;
65803;PMS5003;65658;63.740;34.316;2023-04-19T10:49:59;3;3;
65803;PMS5003;65658;63.740;34.316;2023-04-19T11:05:21;2;2;
65803;PMS5003;65658;63.740;34.316;2023-04-19T11:09:07;0;1;
65803;PMS5003;65658;63.740;34.316;2023-04-19T11:13:04;2;2;
65803;PMS5003;65658;63.740;34.316;2023-04-19T11:16:50;6;6;
65803;PMS5003;65658;63.740;34.316;2023-04-19T11:20:37;3;3;
65803;PMS5003;65658;63.740;34.316;2023-04-19T11:24:23;2;2;
65803;PMS5003;65658;63.740;34.316;2023-04-19T11:28:10;3;3;
65803;PMS5003;65658;63.740;34.316;2023-04-19T11:31:58;4;4;
65803;PMS5003;65658;63.740;34.316;2023-04-19T11:35:44;4;4;
65803;PMS5003;65658;63.740;34.316;2023-04-19T11:39:31;2;2;
65803;PMS5003;65658;63.740;34.316;2023-04-19T11:43:17;2;2;
65803;PMS5003;65658;63.740;34.316;2023-04-19T11:50:56;3;3;
65803;PMS5003;65658;63.740;34.316;2023-04-19T11:54:43;2;2;
65803;PMS5003;65658;63.740;34.316;2023-04-19T12:02:20;3;3;
65803;PMS5003;65658;63.740;34.316;2023-04-19T12:06:09;2;2;
65803;PMS5003;65658;63.740;34.316;2023-04-19T12:09:55;1;1;
65803;PMS5003;65658;63.740;34.316;2023-04-19T12:13:42;2;2;
65803;PMS5003;65658;63.740;34.316;2023-04-19T12:17:28;2;2;
65803;PMS5003;65658;63.740;34.316;2023-04-19T12:25:05;2;2;
65803;PMS5003;65658;63.740;34.316;2023-04-19T12:36:55;1;1;
65803;PMS5003;65658;63.740;34.316;2023-04-19T12:44:32;2;2;
65803;PMS5003;65658;63.740;34.316;2023-04-19T12:48:18;7;8;
65803;PMS5003;65658;63.740;34.316;2023-04-19T12:56:09;1;1;
65803;PMS5003;65658;63.740;34.316;2023-04-19T12:59:56;3;3;
65803;PMS5003;65658;63.740;34.316;2023-04-19T13:03:43;3;3;
65803;PMS5003;65658;63.740;34.316;2023-04-19T13:07:29;3;3;
65803;PMS5003;65658;63.740;34.316;2023-04-19T13:11:16;3;3;
65803;PMS5003;65658;63.740;34.316;2023-04-19T13:19:04;4;4;
65803;PMS5003;65658;63.740;34.316;2023-04-19T13:23:01;4;4;
65803;PMS5003;65658;63.740;34.316;2023-04-19T13:26:48;5;5;
65803;PMS5003;65658;63.740;34.316;2023-04-19T13:30:34;5;6;
65803;PMS5003;65658;63.740;34.316;2023-04-19T13:34:21;9;9;
65803;PMS5003;65658;63.740;34.316;2023-04-19T13:38:07;4;4;
65803;PMS5003;65658;63.740;34.316;2023-04-19T13:41:53;3;3;
65803;PMS5003;65658;63.740;34.316;2023-04-19T13:49:30;4;4;
65803;PMS5003;65658;63.740;34.316;2023-04-19T13:53:17;3;3;
65803;PMS5003;65658;63.740;34.316;2023-04-19T13:57:25;3;3;
65803;PMS5003;65658;63.740;34.316;2023-04-19T14:01:11;3;3;
65803;PMS5003;65658;63.740;34.316;2023-04-19T14:05:09;3;3;
65803;PMS5003;65658;63.740;34.316;2023-04-19T14:08:56;4;4;
65803;PMS5003;65658;63.740;34.316;2023-04-19T14:20:35;4;4;
65803;PMS5003;65658;63.740;34.316;2023-04-19T14:32:03;4;4;
65803;PMS5003;65658;63.740;34.316;2023-04-19T14:39:41;5;5;
65803;PMS5003;65658;63.740;34.316;2023-04-19T14:43:26;3;3;
65803;PMS5003;65658;63.740;34.316;2023-04-19T14:51:04;3;3;
65803;PMS5003;65658;63.740;34.316;2023-04-19T14:54:51;3;3;
65803;PMS5003;65658;63.740;34.316;2023-04-19T14:58:37;4;4;
65803;PMS5003;65658;63.740;34.316;2023-04-19T15:02:23;3;3;
65803;PMS5003;65658;63.740;34.316;2023-04-19T15:06:09;3;3;
65803;PMS5003;65658;63.740;34.316;2023-04-19T15:10:06;4;5;
65803;PMS5003;65658;63.740;34.316;2023-04-19T15:13:52;2;3;
65803;PMS5003;65658;63.740;34.316;2023-04-19T15:21:40;5;5;
65803;PMS5003;65658;63.740;34.316;2023-04-19T15:29:28;3;3;
65803;PMS5003;65658;63.740;34.316;2023-04-19T15:33:14;3;3;
65803;PMS5003;65658;63.740;34.316;2023-04-19T15:37:00;4;4;
65803;PMS5003;65658;63.740;34.316;2023-04-19T15:40:47;7;7;
65803;PMS5003;65658;63.740;34.316;2023-04-19T15:48:24;2;2;
65803;PMS5003;65658;63.740;34.316;2023-04-19T15:56:02;3;3;
65803;PMS5003;65658;63.740;34.316;2023-04-19T15:59:48;2;2;
65803;PMS5003;65658;63.740;34.316;2023-04-19T16:03:35;4;4;
65803;PMS5003;65658;63.740;34.316;2023-04-19T16:07:21;2;2;
65803;PMS5003;65658;63.740;34.316;2023-04-19T16:11:18;2;2;
65803;PMS5003;65658;63.740;34.316;2023-04-19T16:15:04;2;2;
65803;PMS5003;65658;63.740;34.316;2023-04-19T16:18:51;2;2;
65803;PMS5003;65658;63.740;34.316;2023-04-19T16:22:36;4;4;
65803;PMS5003;65658;63.740;34.316;2023-04-19T16:26:23;2;2;
65803;PMS5003;65658;63.740;34.316;2023-04-19T16:30:10;3;3;
65803;PMS5003;65658;63.740;34.316;2023-04-19T16:37:59;2;3;
65803;PMS5003;65658;63.740;34.316;2023-04-19T16:41:45;2;3;
65803;PMS5003;65658;63.740;34.316;2023-04-19T16:53:14;1;1;
65803;PMS5003;65658;63.740;34.316;2023-04-19T16:57:02;2;2;
65803;PMS5003;65658;63.740;34.316;2023-04-19T17:04:39;2;3;
65803;PMS5003;65658;63.740;34.316;2023-04-19T17:08:25;2;2;
65803;PMS5003;65658;63.740;34.316;2023-04-19T17:12:12;2;3;
65803;PMS5003;65658;63.740;34.316;2023-04-19T17:15:58;2;2;
65803;PMS5003;65658;63.740;34.316;2023-04-19T17:19:55;2;2;
65803;PMS5003;65658;63.740;34.316;2023-04-19T17:23:43;2;2;
65803;PMS5003;65658;63.740;34.316;2023-04-19T17:31:20;1;1;
65803;PMS5003;65658;63.740;34.316;2023-04-19T17:35:17;1;1;
65803;PMS5003;65658;63.740;34.316;2023-04-19T17:39:04;2;2;
65803;PMS5003;65658;63.740;34.316;2023-04-19T17:42:50;2;2;
65803;PMS5003;65658;63.740;34.316;2023-04-19T17:46:37;2;3;
65803;PMS5003;65658;63.740;34.316;2023-04-19T17:50:23;5;5;
65803;PMS5003;65658;63.740;34.316;2023-04-19T17:54:10;3;3;
65803;PMS5003;65658;63.740;34.316;2023-04-19T17:57:56;2;2;
65803;PMS5003;65658;63.740;34.316;2023-04-19T18:01:43;2;2;
65803;PMS5003;65658;63.740;34.316;2023-04-19T18:09:31;2;2;
65803;PMS5003;65658;63.740;34.316;2023-04-19T18:13:17;2;2;
65803;PMS5003;65658;63.740;34.316;2023-04-19T18:17:04;2;2;
65803;PMS5003;65658;63.740;34.316;2023-04-19T18:20:49;2;2;
65803;PMS5003;65658;63.740;34.316;2023-04-19T18:24:36;4;4;
65803;PMS5003;65658;63.740;34.316;2023-04-19T18:28:22;2;2;
65803;PMS5003;65658;63.740;34.316;2023-04-19T18:32:20;1;1;
65803;PMS5003;65658;63.740;34.316;2023-04-19T18:36:17;1;1;
65803;PMS5003;65658;63.740;34.316;2023-04-19T18:40:14;3;3;
65803;PMS5003;65658;63.740;34.316;2023-04-19T18:44:01;2;2;
65803;PMS5003;65658;63.740;34.316;2023-04-19T18:47:47;3;3;
65803;PMS5003;65658;63.740;34.316;2023-04-19T18:51:33;3;3;
65803;PMS5003;65658;63.740;34.316;2023-04-19T18:55:20;6;7;
65803;PMS5003;65658;63.740;34.316;2023-04-19T18:59:07;4;4;
65803;PMS5003;65658;63.740;34.316;2023-04-19T19:02:55;3;3;
65803;PMS5003;65658;63.740;34.316;2023-04-19T19:06:42;2;2;
65803;PMS5003;65658;63.740;34.316;2023-04-19T19:10:49;2;2;
65803;PMS5003;65658;63.740;34.316;2023-04-19T19:14:35;1;1;
65803;PMS5003;65658;63.740;34.316;2023-04-19T19:22:23;1;1;
65803;PMS5003;65658;63.740;34.316;2023-04-19T19:26:11;2;3;
65803;PMS5003;65658;63.740;34.316;2023-04-19T19:29:57;1;1;
65803;PMS5003;65658;63.740;34.316;2023-04-19T19:33:43;2;2;
65803;PMS5003;65658;63.740;34.316;2023-04-19T19:37:41;2;2;
65803;PMS5003;65658;63.740;34.316;2023-04-19T19:45:18;1;1;
65803;PMS5003;65658;63.740;34.316;2023-04-19T19:52:56;3;3;
65803;PMS5003;65658;63.740;34.316;2023-04-19T19:56:42;6;6;
65803;PMS5003;65658;63.740;34.316;2023-04-19T20:00:40;2;3;
65803;PMS5003;65658;63.740;34.316;2023-04-19T20:04:26;2;2;
65803;PMS5003;65658;63.740;34.316;2023-04-19T20:08:12;2;2;
65803;PMS5003;65658;63.740;34.316;2023-04-19T20:12:31;2;2;
65803;PMS5003;65658;63.740;34.316;2023-04-19T20:16:18;1;1;
65803;PMS5003;65658;63.740;34.316;2023-04-19T20:20:04;2;2;
65803;PMS5003;65658;63.740;34.316;2023-04-19T20:24:02;2;2;
65803;PMS5003;65658;63.740;34.316;2023-04-19T20:27:59;1;1;
65803;PMS5003;65658;63.740;34.316;2023-04-19T20:35:36;1;2;
65803;PMS5003;65658;63.740;34.316;2023-04-19T20:39:23;2;2;
65803;PMS5003;65658;63.740;34.316;2023-04-19T20:43:09;2;2;
65803;PMS5003;65658;63.740;34.316;2023-04-19T20:50:46;2;2;
65803;PMS5003;65658;63.740;34.316;2023-04-19T20:54:33;1;1;
65803;PMS5003;65658;63.740;34.316;2023-04-19T20:58:30;1;1;
65803;PMS5003;65658;63.740;34.316;2023-04-19T21:02:16;1;1;
65803;PMS5003;65658;63.740;34.316;2023-04-19T21:06:02;1;1;
65803;PMS5003;65658;63.740;34.316;2023-04-19T21:09:48;1;1;
65803;PMS5003;65658;63.740;34.316;2023-04-19T21:13:46;1;1;
65803;PMS5003;65658;63.740;34.316;2023-04-19T21:17:33;2;2;
65803;PMS5003;65658;63.740;34.316;2023-04-19T21:21:19;1;2;
65803;PMS5003;65658;63.740;34.316;2023-04-19T21:25:16;1;1;
65803;PMS5003;65658;63.740;34.316;2023-04-19T21:29:13;1;1;
65803;PMS5003;65658;63.740;34.316;2023-04-19T21:32:59;1;1;
65803;PMS5003;65658;63.740;34.316;2023-04-19T21:40:37;2;2;
65803;PMS5003;65658;63.740;34.316;2023-04-19T21:44:23;1;1;
65803;PMS5003;65658;63.740;34.316;2023-04-19T21:52:01;1;1;
65803;PMS5003;65658;63.740;34.316;2023-04-19T21:55:58;3;3;
65803;PMS5003;65658;63.740;34.316;2023-04-19T21:59:44;1;1;
65803;PMS5003;65658;63.740;34.316;2023-04-19T22:03:31;1;1;
65803;PMS5003;65658;63.740;34.316;2023-04-19T22:07:17;1;1;
65803;PMS5003;65658;63.740;34.316;2023-04-19T22:11:04;1;1;
65803;PMS5003;65658;63.740;34.316;2023-04-19T22:14:49;2;2;
65803;PMS5003;65658;63.740;34.316;2023-04-19T22:18:47;2;2;
65803;PMS5003;65658;63.740;34.316;2023-04-19T22:22:45;2;2;
65803;PMS5003;65658;63.740;34.316;2023-04-19T22:26:31;1;1;
65803;PMS5003;65658;63.740;34.316;2023-04-19T22:30:29;2;2;
65803;PMS5003;65658;63.740;34.316;2023-04-19T22:38:05;1;1;
65803;PMS5003;65658;63.740;34.316;2023-04-19T22:42:03;1;1;
65803;PMS5003;65658;63.740;34.316;2023-04-19T22:49:40;2;2;
65803;PMS5003;65658;63.740;34.316;2023-04-19T22:53:37;2;2;
65803;PMS5003;65658;63.740;34.316;2023-04-19T22:57:23;2;2;
65803;PMS5003;65658;63.740;34.316;2023-04-19T23:01:09;2;2;
65803;PMS5003;65658;63.740;34.316;2023-04-19T23:08:59;1;1;
65803;PMS5003;65658;63.740;34.316;2023-04-19T23:24:29;1;1;
65803;PMS5003;65658;63.740;34.316;2023-04-19T23:28:37;1;1;
65803;PMS5003;65658;63.740;34.316;2023-04-19T23:32:23;2;2;
65803;PMS5003;65658;63.740;34.316;2023-04-19T23:36:21;2;2;
65803;PMS5003;65658;63.740;34.316;2023-04-19T23:40:07;2;2;
65803;PMS5003;65658;63.740;34.316;2023-04-19T23:47:45;2;2;
65803;PMS5003;65658;63.740;34.316;2023-04-19T23:51:43;2;2;
65803;PMS5003;65658;63.740;34.316;2023-04-19T23:55:29;2;3;
65803;PMS5003;65658;63.740;34.316;2023-04-19T23:59:16;3;3;
